Time;durP1;ratioP1;P1;durP2;ratioP2;P2;SDS_P1;SDS_P2;PMS_P1;PMS_P2;Temp;Humidity;BMP_temperature;BMP_pressure;BME280_temperature;BME280_humidity;BME280_pressure;Samples;Min_cycle;Max_cycle;Signal;HPM_P1;HPM_P2
2023/01/17 00:01:59;;;;;;;;;;;20.90;40.80;;;;;;5074688;28;19942;-66
2023/01/17 00:10:06;;;;;;;;;;;20.90;40.70;;;;;;5074607;28;19943;-66
2023/01/17 00:12:33;;;;;;;;;;;20.90;40.70;;;;;;5074271;28;20377;-66
2023/01/17 00:15:00;;;;;;;;;;;20.90;40.70;;;;;;5073956;28;19920;-66
2023/01/17 00:17:28;;;;;;;;;;;20.90;40.70;;;;;;5073740;28;19920;-66
2023/01/17 01:35:50;;;;;;;;;;;20.80;40.60;;;;;;5073229;28;20360;-66
2023/01/17 01:38:18;;;;;;;;;;;20.80;40.60;;;;;;5073542;28;19920;-66
2023/01/17 01:40:46;;;;;;;;;;;20.80;40.60;;;;;;5055237;28;19920;-66
2023/01/17 01:43:14;;;;;;;;;;;20.80;40.50;;;;;;5073146;28;19927;-66
2023/01/17 01:45:45;;;;;;;;;;;20.80;40.80;;;;;;5073109;28;20368;-66
2023/01/17 01:48:22;;;;;;;;;;;20.80;40.50;;;;;;5073084;28;19924;-66
2023/01/17 01:50:49;;;;;;;;;;;20.80;40.50;;;;;;5072030;28;20395;-66
2023/01/17 01:53:17;;;;;;;;;;;20.80;40.50;;;;;;5073523;28;19959;-66
2023/01/17 01:55:47;;;;;;;;;;;20.80;40.50;;;;;;5072990;28;19920;-66
2023/01/17 01:58:17;;;;;;;;;;;20.80;40.50;;;;;;5072297;28;20390;-66
2023/01/17 02:00:44;;;;;;;;;;;20.80;40.50;;;;;;5077112;28;19920;-66
2023/01/17 02:03:18;;;;;;;;;;;20.80;40.50;;;;;;5058260;28;19920;-66
2023/01/17 02:05:45;;;;;;;;;;;20.80;40.50;;;;;;5058986;28;19921;-66
2023/01/17 02:08:14;;;;;;;;;;;20.80;40.50;;;;;;5077024;28;20358;-66
2023/01/17 02:10:41;;;;;;;;;;;20.80;40.50;;;;;;5076725;28;19924;-66
2023/01/17 02:13:08;;;;;;;;;;;20.80;40.50;;;;;;5058747;28;20407;-66
2023/01/17 02:15:43;;;;;;;;;;;20.80;40.50;;;;;;5076980;28;19920;-66
2023/01/17 02:18:30;;;;;;;;;;;20.80;40.50;;;;;;5076133;28;19967;-66
2023/01/17 02:21:17;;;;;;;;;;;20.80;40.50;;;;;;5076348;28;20451;-66
2023/01/17 02:24:04;;;;;;;;;;;20.80;40.50;;;;;;5076017;28;19935;-66
2023/01/17 02:26:46;;;;;;;;;;;20.80;40.50;;;;;;5076344;28;20424;-66
2023/01/17 02:29:33;;;;;;;;;;;20.80;40.50;;;;;;5076282;28;20360;-66
2023/01/17 02:32:04;;;;;;;;;;;20.80;40.50;;;;;;5061457;28;19924;-66
2023/01/17 02:34:44;;;;;;;;;;;20.80;40.40;;;;;;5076231;28;20011;-66
2023/01/17 02:37:16;;;;;;;;;;;20.80;40.40;;;;;;5076226;28;20027;-69
2023/01/17 02:39:49;;;;;;;;;;;20.80;40.40;;;;;;5076381;28;20287;-66
2023/01/17 02:42:18;;;;;;;;;;;20.80;40.40;;;;;;5076124;28;20443;-66
2023/01/17 02:44:45;;;;;;;;;;;20.80;40.40;;;;;;5058267;28;19920;-66
2023/01/17 02:47:23;;;;;;;;;;;20.80;40.40;;;;;;5076037;28;20003;-66
2023/01/17 02:49:52;;;;;;;;;;;20.80;40.40;;;;;;5076406;28;19927;-67
2023/01/17 02:52:24;;;;;;;;;;;20.80;40.40;;;;;;5076185;28;19921;-66
2023/01/17 02:55:11;;;;;;;;;;;20.80;40.40;;;;;;5075459;28;19920;-67
2023/01/17 02:57:48;;;;;;;;;;;20.80;40.40;;;;;;5060720;28;20303;-66
2023/01/17 03:00:21;;;;;;;;;;;20.80;40.40;;;;;;5075680;28;19927;-66
2023/01/17 03:03:06;;;;;;;;;;;20.80;40.90;;;;;;5075964;28;19921;-66
2023/01/17 03:05:35;;;;;;;;;;;20.80;40.40;;;;;;5075880;28;19927;-66
2023/01/17 03:08:02;;;;;;;;;;;20.80;40.40;;;;;;5076004;28;19928;-66
2023/01/17 03:10:31;;;;;;;;;;;20.80;40.40;;;;;;5074941;28;19928;-66
2023/01/17 03:12:59;;;;;;;;;;;20.80;40.40;;;;;;5075382;28;20018;-66
2023/01/17 03:15:26;;;;;;;;;;;20.80;40.40;;;;;;5075917;28;19963;-66
2023/01/17 03:17:57;;;;;;;;;;;20.80;40.40;;;;;;5075408;28;20455;-66
2023/01/17 03:20:24;;;;;;;;;;;20.80;40.40;;;;;;5075619;28;19920;-66
2023/01/17 03:22:51;;;;;;;;;;;20.70;40.30;;;;;;5075745;28;20295;-66
2023/01/17 03:25:18;;;;;;;;;;;20.70;40.30;;;;;;5075348;28;19920;-66
2023/01/17 03:27:45;;;;;;;;;;;20.80;40.40;;;;;;5075547;28;19926;-66
2023/01/17 03:30:12;;;;;;;;;;;20.70;40.30;;;;;;5075309;28;19963;-66
2023/01/17 03:32:39;;;;;;;;;;;20.80;40.40;;;;;;5075280;28;19942;-66
2023/01/17 03:35:06;;;;;;;;;;;20.70;40.30;;;;;;5075383;28;19927;-66
2023/01/17 03:37:33;;;;;;;;;;;20.70;40.30;;;;;;5074976;28;19927;-66
2023/01/17 03:40:00;;;;;;;;;;;20.70;40.30;;;;;;5073883;28;19998;-66
2023/01/17 03:42:27;;;;;;;;;;;20.80;40.40;;;;;;5074298;28;19927;-66
2023/01/17 03:44:54;;;;;;;;;;;20.80;40.40;;;;;;5075293;28;20300;-66
2023/01/17 03:47:21;;;;;;;;;;;20.70;40.30;;;;;;5074907;28;19924;-66
2023/01/17 03:49:48;;;;;;;;;;;20.70;40.30;;;;;;5074723;28;19920;-66
2023/01/17 03:52:14;;;;;;;;;;;20.70;40.40;;;;;;5074832;28;19927;-66
2023/01/17 03:54:41;;;;;;;;;;;20.70;40.30;;;;;;5074346;28;19920;-66
2023/01/17 03:57:08;;;;;;;;;;;20.70;40.40;;;;;;5074333;28;19926;-67
2023/01/17 03:59:35;;;;;;;;;;;20.70;40.40;;;;;;5074306;28;20283;-66
2023/01/17 04:02:02;;;;;;;;;;;20.70;40.30;;;;;;5074528;28;19920;-67
2023/01/17 04:04:29;;;;;;;;;;;20.70;40.40;;;;;;5074479;28;19920;-66
2023/01/17 04:06:56;;;;;;;;;;;20.70;40.40;;;;;;5073977;28;19920;-66
2023/01/17 04:09:23;;;;;;;;;;;20.70;40.30;;;;;;5074128;28;19921;-66
2023/01/17 04:11:52;;;;;;;;;;;20.70;40.30;;;;;;5074465;28;19921;-66
2023/01/17 04:14:19;;;;;;;;;;;20.70;40.40;;;;;;5074067;28;19927;-66
2023/01/17 04:16:45;;;;;;;;;;;20.70;40.40;;;;;;5074696;28;19921;-66
2023/01/17 04:19:12;;;;;;;;;;;20.70;40.40;;;;;;5074192;28;19925;-67
2023/01/17 04:21:39;;;;;;;;;;;20.70;40.40;;;;;;5074250;28;19920;-66
2023/01/17 04:24:06;;;;;;;;;;;20.70;40.40;;;;;;5073809;28;19927;-67
2023/01/17 04:26:33;;;;;;;;;;;20.70;40.40;;;;;;5073784;28;19920;-66
2023/01/17 04:29:00;;;;;;;;;;;20.70;40.40;;;;;;5073457;28;19921;-66
2023/01/17 04:31:27;;;;;;;;;;;20.60;40.40;;;;;;5073949;28;19934;-66
2023/01/17 04:33:54;;;;;;;;;;;20.70;40.50;;;;;;5073017;28;20273;-66
2023/01/17 04:36:21;;;;;;;;;;;20.70;40.50;;;;;;5072086;28;19935;-66
2023/01/17 04:38:48;;;;;;;;;;;20.70;40.50;;;;;;5072479;28;19926;-66
2023/01/17 04:41:15;;;;;;;;;;;20.70;40.50;;;;;;5073224;28;20007;-66
2023/01/17 04:43:42;;;;;;;;;;;20.70;40.50;;;;;;5073878;28;19924;-66
2023/01/17 04:46:09;;;;;;;;;;;20.70;40.50;;;;;;5073263;28;19920;-67
2023/01/17 04:48:37;;;;;;;;;;;20.70;40.50;;;;;;5070924;28;19924;-66
2023/01/17 04:51:04;;;;;;;;;;;20.70;40.50;;;;;;5073246;28;19974;-66
2023/01/17 04:53:31;;;;;;;;;;;20.70;40.50;;;;;;5077587;28;20553;-66
2023/01/17 04:55:58;;;;;;;;;;;20.70;40.50;;;;;;5077242;28;19924;-66
2023/01/17 04:58:25;;;;;;;;;;;20.60;40.40;;;;;;5072160;28;20368;-66
2023/01/17 05:00:53;;;;;;;;;;;20.70;40.50;;;;;;5072898;28;19928;-66
2023/01/17 05:03:21;;;;;;;;;;;20.70;40.50;;;;;;5072975;28;19924;-66
2023/01/17 05:05:48;;;;;;;;;;;20.70;40.40;;;;;;5073379;28;19999;-66
2023/01/17 05:08:15;;;;;;;;;;;20.70;40.40;;;;;;5073564;28;19920;-66
2023/01/17 05:10:44;;;;;;;;;;;20.70;40.40;;;;;;5073163;28;19928;-66
2023/01/17 05:13:11;;;;;;;;;;;20.60;40.30;;;;;;5073149;28;19924;-66
2023/01/17 05:15:38;;;;;;;;;;;20.60;40.40;;;;;;5073942;28;19987;-66
2023/01/17 05:18:07;;;;;;;;;;;20.60;40.30;;;;;;5073322;28;20330;-66
2023/01/17 05:20:35;;;;;;;;;;;20.60;40.30;;;;;;5073442;28;19924;-66
2023/01/17 05:23:02;;;;;;;;;;;20.60;40.40;;;;;;5073546;28;19926;-66
2023/01/17 05:25:30;;;;;;;;;;;20.60;40.40;;;;;;5073615;28;19956;-66
2023/01/17 05:27:58;;;;;;;;;;;20.60;40.30;;;;;;5072387;28;19955;-66
2023/01/17 05:30:26;;;;;;;;;;;20.60;40.30;;;;;;5072960;28;19920;-66
2023/01/17 05:32:54;;;;;;;;;;;20.60;40.30;;;;;;5073471;28;19921;-66
2023/01/17 05:35:23;;;;;;;;;;;20.60;40.30;;;;;;5059421;28;19920;-66
2023/01/17 05:37:50;;;;;;;;;;;20.60;40.30;;;;;;5077384;28;19920;-66
2023/01/17 05:40:17;;;;;;;;;;;20.60;40.20;;;;;;5076279;28;19920;-66
2023/01/17 05:42:48;;;;;;;;;;;20.60;40.10;;;;;;5074091;28;19920;-66
2023/01/17 05:45:16;;;;;;;;;;;20.60;40.00;;;;;;5071719;28;19920;-66
2023/01/17 05:47:43;;;;;;;;;;;20.60;40.00;;;;;;5076553;28;20011;-66
2023/01/17 05:50:11;;;;;;;;;;;20.50;40.00;;;;;;5076360;28;19921;-66
2023/01/17 05:52:39;;;;;;;;;;;20.50;40.00;;;;;;5073790;28;20368;-66
2023/01/17 05:55:06;;;;;;;;;;;20.50;40.00;;;;;;5075703;28;20391;-66
2023/01/17 05:57:33;;;;;;;;;;;20.50;40.00;;;;;;5075483;28;20276;-66
2023/01/17 06:00:00;;;;;;;;;;;20.60;40.00;;;;;;5075839;28;19921;-66
2023/01/17 06:02:27;;;;;;;;;;;20.50;39.90;;;;;;5071232;28;19921;-66
2023/01/17 06:04:54;;;;;;;;;;;20.60;39.90;;;;;;5072213;28;20003;-66
2023/01/17 06:07:21;;;;;;;;;;;20.60;39.80;;;;;;5075756;28;19920;-67
2023/01/17 06:09:48;;;;;;;;;;;20.60;39.70;;;;;;5075481;28;19950;-66
2023/01/17 06:12:15;;;;;;;;;;;20.70;39.70;;;;;;5075305;28;20292;-66
2023/01/17 06:14:42;;;;;;;;;;;20.70;39.70;;;;;;5075502;28;19924;-66
2023/01/17 06:17:09;;;;;;;;;;;20.70;39.70;;;;;;5074790;28;19920;-65
2023/01/17 06:19:36;;;;;;;;;;;20.70;39.70;;;;;;5075711;28;19920;-66
2023/01/17 06:22:03;;;;;;;;;;;20.80;39.80;;;;;;5075512;28;19927;-64
2023/01/17 06:24:30;;;;;;;;;;;20.70;39.70;;;;;;5074102;28;19920;-66
2023/01/17 06:26:57;;;;;;;;;;;20.80;39.70;;;;;;5072385;28;19920;-66
2023/01/17 06:29:25;;;;;;;;;;;20.80;39.70;;;;;;5072747;28;20014;-68
2023/01/17 06:31:52;;;;;;;;;;;20.90;39.70;;;;;;5067835;28;19928;-66
2023/01/17 06:34:19;;;;;;;;;;;20.90;39.50;;;;;;5066511;28;19928;-67
2023/01/17 06:36:46;;;;;;;;;;;21.00;39.50;;;;;;5068481;28;19927;-66
2023/01/17 06:39:13;;;;;;;;;;;21.00;39.40;;;;;;5067535;28;20561;-66
2023/01/17 06:41:42;;;;;;;;;;;21.10;39.30;;;;;;5053750;28;19932;-65
2023/01/17 06:44:08;;;;;;;;;;;21.10;39.30;;;;;;5066095;28;19929;-67
2023/01/17 06:46:36;;;;;;;;;;;21.20;39.50;;;;;;5066257;28;19928;-61
2023/01/17 06:49:03;;;;;;;;;;;21.20;39.70;;;;;;5066422;28;19935;-66
2023/01/17 06:51:30;;;;;;;;;;;21.30;39.90;;;;;;5064790;28;19993;-68
2023/01/17 06:53:57;;;;;;;;;;;21.30;40.10;;;;;;5037296;28;21756;-74
2023/01/17 06:56:24;;;;;;;;;;;21.30;40.20;;;;;;5060635;28;19928;-66
2023/01/17 06:58:51;;;;;;;;;;;21.40;40.40;;;;;;5065813;28;20751;-60
2023/01/17 07:01:18;;;;;;;;;;;21.40;40.40;;;;;;5065369;28;19970;-75
2023/01/17 07:03:45;;;;;;;;;;;21.50;40.30;;;;;;5055547;28;20019;-72
2023/01/17 07:06:13;;;;;;;;;;;21.50;40.30;;;;;;5063109;28;19971;-67
2023/01/17 07:08:39;;;;;;;;;;;21.60;40.30;;;;;;5069368;28;20011;-68
2023/01/17 07:11:07;;;;;;;;;;;21.60;40.50;;;;;;5067414;28;20371;-69
2023/01/17 07:13:34;;;;;;;;;;;21.70;40.60;;;;;;5063967;28;19929;-71
2023/01/17 07:16:03;;;;;;;;;;;21.70;40.40;;;;;;5066276;28;19927;-64
2023/01/17 07:18:32;;;;;;;;;;;21.70;40.40;;;;;;5063017;28;19939;-67
2023/01/17 07:20:59;;;;;;;;;;;21.80;40.10;;;;;;5066017;28;19924;-68
2023/01/17 07:23:26;;;;;;;;;;;21.80;40.00;;;;;;5066223;28;20447;-63
2023/01/17 07:25:55;;;;;;;;;;;21.90;40.00;;;;;;5045703;28;19928;-64
2023/01/17 07:28:22;;;;;;;;;;;21.90;39.90;;;;;;5065484;28;19928;-64
2023/01/17 07:30:49;;;;;;;;;;;22.00;39.70;;;;;;5065690;28;19920;-66
2023/01/17 07:33:16;;;;;;;;;;;22.00;39.50;;;;;;5069609;28;20047;-64
2023/01/17 07:35:43;;;;;;;;;;;22.00;39.40;;;;;;5065085;28;19958;-63
2023/01/17 07:38:14;;;;;;;;;;;22.00;39.20;;;;;;5065699;28;20296;-65
2023/01/17 07:40:41;;;;;;;;;;;22.10;39.00;;;;;;5061210;28;19978;-68
2023/01/17 07:43:12;;;;;;;;;;;22.10;39.10;;;;;;5062424;28;19928;-64
2023/01/17 07:45:41;;;;;;;;;;;22.10;39.20;;;;;;5060888;28;19946;-66
2023/01/17 07:48:08;;;;;;;;;;;22.20;39.20;;;;;;5063173;28;19928;-68
2023/01/17 07:50:35;;;;;;;;;;;22.20;39.30;;;;;;5062284;28;20287;-67
2023/01/17 07:53:02;;;;;;;;;;;22.20;39.40;;;;;;5064550;28;19942;-65
2023/01/17 07:55:30;;;;;;;;;;;22.20;39.40;;;;;;5063765;28;19924;-65
2023/01/17 07:57:57;;;;;;;;;;;22.30;39.40;;;;;;5064256;28;20019;-68
2023/01/17 08:00:26;;;;;;;;;;;22.30;39.80;;;;;;5063509;28;19928;-65
2023/01/17 08:02:57;;;;;;;;;;;22.30;39.10;;;;;;5066236;28;20360;-64
2023/01/17 08:05:24;;;;;;;;;;;22.40;39.10;;;;;;5063646;28;19951;-65
2023/01/17 08:07:51;;;;;;;;;;;22.50;39.40;;;;;;5065145;28;19928;-66
2023/01/17 08:10:18;;;;;;;;;;;22.50;39.30;;;;;;5060828;28;19935;-63
2023/01/17 08:12:45;;;;;;;;;;;22.50;39.30;;;;;;5064118;28;19949;-65
2023/01/17 08:15:13;;;;;;;;;;;22.50;39.30;;;;;;5063950;28;19938;-67
2023/01/17 08:17:48;;;;;;;;;;;22.60;39.40;;;;;;5066013;28;20312;-64
2023/01/17 08:20:15;;;;;;;;;;;22.60;39.40;;;;;;5066393;28;20296;-62
2023/01/17 08:22:42;;;;;;;;;;;22.60;39.30;;;;;;5066906;28;20023;-63
2023/01/17 08:25:09;;;;;;;;;;;22.70;39.50;;;;;;5065283;28;19989;-66
2023/01/17 08:27:37;;;;;;;;;;;22.70;39.50;;;;;;5061300;28;19928;-65
2023/01/17 08:30:04;;;;;;;;;;;22.80;39.50;;;;;;5063955;28;20340;-65
2023/01/17 08:32:32;;;;;;;;;;;22.80;39.30;;;;;;5066148;28;19928;-66
2023/01/17 08:34:59;;;;;;;;;;;22.90;39.30;;;;;;5065337;28;20287;-65
2023/01/17 08:37:25;;;;;;;;;;;22.90;39.20;;;;;;5064825;28;19944;-65
2023/01/17 08:39:53;;;;;;;;;;;23.00;39.00;;;;;;5064834;28;19971;-65
2023/01/17 08:42:20;;;;;;;;;;;23.00;38.90;;;;;;5065893;28;19921;-66
2023/01/17 08:44:47;;;;;;;;;;;23.00;38.70;;;;;;5065570;28;19921;-67
2023/01/17 08:47:14;;;;;;;;;;;23.10;38.60;;;;;;5045875;28;20014;-67
2023/01/17 08:49:42;;;;;;;;;;;23.10;38.40;;;;;;5063231;28;20360;-68
2023/01/17 08:52:11;;;;;;;;;;;23.10;38.20;;;;;;5059230;28;19928;-67
2023/01/17 08:54:38;;;;;;;;;;;23.20;38.10;;;;;;5058302;28;20007;-67
2023/01/17 08:57:05;;;;;;;;;;;23.20;38.00;;;;;;5062089;28;19928;-64
2023/01/17 08:59:32;;;;;;;;;;;23.20;38.00;;;;;;5062825;28;19930;-64
2023/01/17 09:02:05;;;;;;;;;;;23.30;37.90;;;;;;5061173;28;19928;-63
2023/01/17 09:04:32;;;;;;;;;;;23.30;37.90;;;;;;5064107;28;20350;-62
2023/01/17 09:06:59;;;;;;;;;;;23.30;37.80;;;;;;5061096;28;19974;-67
2023/01/17 09:09:26;;;;;;;;;;;23.30;37.70;;;;;;5064195;28;20010;-65
2023/01/17 09:11:53;;;;;;;;;;;23.40;37.70;;;;;;5062672;28;19939;-69
2023/01/17 09:14:21;;;;;;;;;;;23.40;37.60;;;;;;5064186;28;19942;-66
2023/01/17 09:16:48;;;;;;;;;;;23.40;38.20;;;;;;5061628;28;19928;-66
2023/01/17 09:19:15;;;;;;;;;;;23.40;37.50;;;;;;5064308;28;20343;-65
2023/01/17 09:21:42;;;;;;;;;;;23.40;37.50;;;;;;5063739;28;19920;-63
2023/01/17 09:24:10;;;;;;;;;;;23.50;37.40;;;;;;5062993;28;19924;-66
2023/01/17 09:26:37;;;;;;;;;;;23.50;37.30;;;;;;5063190;28;19924;-65
2023/01/17 09:29:04;;;;;;;;;;;23.60;37.30;;;;;;5060988;28;20304;-60
2023/01/17 09:31:31;;;;;;;;;;;23.60;37.20;;;;;;5065401;28;19924;-61
2023/01/17 09:33:58;;;;;;;;;;;23.60;37.20;;;;;;5061478;28;20672;-65
2023/01/17 09:36:27;;;;;;;;;;;23.60;37.10;;;;;;5063988;28;19929;-64
2023/01/17 09:38:56;;;;;;;;;;;23.70;37.10;;;;;;5066958;28;19979;-66
2023/01/17 09:41:27;;;;;;;;;;;23.70;37.20;;;;;;5061888;28;19982;-63
2023/01/17 09:43:58;;;;;;;;;;;23.70;37.00;;;;;;5063023;28;19924;-63
2023/01/17 09:46:28;;;;;;;;;;;23.70;37.00;;;;;;5059697;28;20025;-63
2023/01/17 09:48:59;;;;;;;;;;;23.70;36.90;;;;;;5067034;28;19925;-62
2023/01/17 09:51:26;;;;;;;;;;;23.80;36.90;;;;;;5066148;28;20023;-62
2023/01/17 09:53:53;;;;;;;;;;;23.80;36.80;;;;;;5065665;28;20436;-64
2023/01/17 09:56:28;;;;;;;;;;;23.80;36.80;;;;;;5069606;28;19963;-63
2023/01/17 09:59:14;;;;;;;;;;;23.90;36.70;;;;;;5069416;28;19974;-64
2023/01/17 10:01:56;;;;;;;;;;;23.90;36.60;;;;;;5064459;28;19929;-63
2023/01/17 10:04:43;;;;;;;;;;;23.90;36.50;;;;;;5062122;28;19972;-61
2023/01/17 10:07:17;;;;;;;;;;;23.90;36.50;;;;;;5067660;28;19924;-63
2023/01/17 10:10:05;;;;;;;;;;;23.90;36.40;;;;;;5066932;28;19934;-65
2023/01/17 10:12:38;;;;;;;;;;;23.90;36.30;;;;;;5066206;28;19924;-63
2023/01/17 10:15:25;;;;;;;;;;;24.00;36.30;;;;;;5061688;28;19934;-63
2023/01/17 10:18:11;;;;;;;;;;;24.00;36.30;;;;;;5064939;28;19932;-63
2023/01/17 10:21:13;;;;;;;;;;;24.00;36.20;;;;;;5062569;28;20024;-64
2023/01/17 10:23:59;;;;;;;;;;;24.00;36.20;;;;;;5067138;28;19970;-65
2023/01/17 10:26:26;;;;;;;;;;;24.10;36.20;;;;;;5069442;28;20019;-63
2023/01/17 10:28:57;;;;;;;;;;;24.10;36.10;;;;;;5072608;28;19928;-64
2023/01/17 10:31:26;;;;;;;;;;;24.10;36.10;;;;;;5067366;28;19936;-64
2023/01/17 10:33:57;;;;;;;;;;;24.10;36.00;;;;;;5070727;28;20008;-63
2023/01/17 10:36:25;;;;;;;;;;;24.10;36.00;;;;;;5072132;28;20015;-65
2023/01/17 10:38:55;;;;;;;;;;;24.10;36.00;;;;;;5052977;28;20018;-63
2023/01/17 10:41:32;;;;;;;;;;;24.10;36.00;;;;;;5067559;28;20372;-64
2023/01/17 10:44:04;;;;;;;;;;;24.10;36.00;;;;;;5064668;28;19924;-64
2023/01/17 10:46:35;;;;;;;;;;;24.10;36.00;;;;;;5065102;28;20457;-64
2023/01/17 10:49:02;;;;;;;;;;;24.10;36.00;;;;;;5066979;28;19926;-66
2023/01/17 10:51:41;;;;;;;;;;;24.10;36.00;;;;;;5070580;28;19920;-63
2023/01/17 10:54:19;;;;;;;;;;;24.20;36.00;;;;;;5065457;28;20015;-63
2023/01/17 10:56:46;;;;;;;;;;;24.20;36.00;;;;;;5060284;28;19970;-64
2023/01/17 10:59:16;;;;;;;;;;;24.30;36.10;;;;;;5068753;28;19974;-67
2023/01/17 11:01:44;;;;;;;;;;;24.30;36.20;;;;;;5067755;28;20145;-65
2023/01/17 11:04:31;;;;;;;;;;;24.30;36.10;;;;;;5068056;28;19926;-67
2023/01/17 11:07:10;;;;;;;;;;;24.30;36.00;;;;;;5068522;28;20402;-65
2023/01/17 11:09:39;;;;;;;;;;;24.40;36.00;;;;;;5049757;28;19920;-66
2023/01/17 11:12:25;;;;;;;;;;;24.40;35.90;;;;;;5062752;28;19920;-65
2023/01/17 11:15:01;;;;;;;;;;;24.40;36.00;;;;;;5069764;28;19943;-64
2023/01/17 11:17:28;;;;;;;;;;;24.50;36.00;;;;;;5070054;28;19924;-65
2023/01/17 11:20:22;;;;;;;;;;;24.50;36.00;;;;;;5071024;28;19964;-64
2023/01/17 11:23:02;;;;;;;;;;;24.50;35.90;;;;;;5069426;28;19951;-66
2023/01/17 11:25:32;;;;;;;;;;;24.50;35.90;;;;;;5067914;28;20430;-65
2023/01/17 11:28:04;;;;;;;;;;;24.60;35.90;;;;;;5067729;28;20015;-65
2023/01/17 11:30:31;;;;;;;;;;;24.60;35.90;;;;;;5067762;28;20019;-68
2023/01/17 11:33:02;;;;;;;;;;;24.60;35.80;;;;;;5073737;28;20011;-62
2023/01/17 11:35:43;;;;;;;;;;;24.60;35.80;;;;;;5045327;28;19930;-64
2023/01/17 11:38:18;;;;;;;;;;;24.60;35.80;;;;;;5067094;28;19962;-63
2023/01/17 11:40:46;;;;;;;;;;;24.60;35.80;;;;;;5050007;28;19924;-62
2023/01/17 11:43:19;;;;;;;;;;;24.60;35.80;;;;;;5073085;28;20043;-66
2023/01/17 11:46:00;;;;;;;;;;;24.60;35.80;;;;;;5067516;28;19929;-64
2023/01/17 11:48:32;;;;;;;;;;;24.50;35.80;;;;;;5070958;28;19920;-65
2023/01/17 11:50:59;;;;;;;;;;;24.50;35.90;;;;;;5064565;28;19932;-72
2023/01/17 11:53:29;;;;;;;;;;;24.60;35.80;;;;;;5067674;28;20027;-64
2023/01/17 11:56:16;;;;;;;;;;;24.60;35.80;;;;;;5066782;28;19924;-66
2023/01/17 11:58:44;;;;;;;;;;;24.60;35.90;;;;;;5067860;28;20347;-66
2023/01/17 12:01:31;;;;;;;;;;;24.60;36.00;;;;;;5043543;28;20345;-63
2023/01/17 12:04:18;;;;;;;;;;;24.50;35.90;;;;;;5065056;28;19975;-66
2023/01/17 12:07:05;;;;;;;;;;;24.50;35.90;;;;;;5061569;28;19928;-65
2023/01/17 12:09:46;;;;;;;;;;;24.50;36.10;;;;;;5064267;28;20482;-65
2023/01/17 12:15:35;;;;;;;;;;;24.50;36.50;;;;;;5063595;28;19951;-66
2023/01/17 12:18:23;;;;;;;;;;;24.50;36.50;;;;;;5064744;28;19990;-61
2023/01/17 12:21:10;;;;;;;;;;;24.50;37.10;;;;;;5063105;28;19920;-62
2023/01/17 12:23:57;;;;;;;;;;;24.50;36.60;;;;;;5066976;28;19924;-62
2023/01/17 12:26:33;;;;;;;;;;;24.50;36.60;;;;;;5064085;28;19928;-66
2023/01/17 12:29:20;;;;;;;;;;;24.50;36.80;;;;;;5065394;28;20315;-66
2023/01/17 12:32:03;;;;;;;;;;;24.50;36.80;;;;;;5065321;28;20345;-66
2023/01/17 12:34:34;;;;;;;;;;;24.50;37.40;;;;;;5065375;28;20354;-61
2023/01/17 12:37:11;;;;;;;;;;;24.50;36.90;;;;;;5064013;28;20359;-61
2023/01/17 12:39:40;;;;;;;;;;;24.50;37.00;;;;;;5061391;28;19959;-61
2023/01/17 12:42:12;;;;;;;;;;;24.50;36.90;;;;;;5064629;28;20011;-61
2023/01/17 12:44:59;;;;;;;;;;;24.50;36.90;;;;;;5061786;28;20005;-61
2023/01/17 12:47:28;;;;;;;;;;;24.50;36.90;;;;;;5066895;28;20022;-64
2023/01/17 12:50:15;;;;;;;;;;;24.50;36.90;;;;;;5065090;28;19924;-63
2023/01/17 12:53:02;;;;;;;;;;;24.50;36.90;;;;;;5050482;28;19932;-63
2023/01/17 12:55:35;;;;;;;;;;;24.50;36.90;;;;;;5065970;28;20019;-62
2023/01/17 12:58:04;;;;;;;;;;;24.60;36.90;;;;;;5066987;28;20338;-64
2023/01/17 13:00:35;;;;;;;;;;;24.50;36.90;;;;;;5063809;28;19928;-67
2023/01/17 13:03:06;;;;;;;;;;;24.50;36.90;;;;;;5064180;28;19928;-67
2023/01/17 13:05:39;;;;;;;;;;;24.60;36.90;;;;;;5062296;28;19939;-67
2023/01/17 13:08:27;;;;;;;;;;;24.50;36.70;;;;;;5064932;28;20000;-67
2023/01/17 13:11:01;;;;;;;;;;;24.60;36.60;;;;;;5065058;28;19934;-67
2023/01/17 13:13:29;;;;;;;;;;;24.60;36.40;;;;;;5063907;28;19924;-68
2023/01/17 13:16:16;;;;;;;;;;;24.50;36.30;;;;;;5061293;28;19929;-67
2023/01/17 13:18:45;;;;;;;;;;;24.50;36.20;;;;;;5064908;28;20396;-69
2023/01/17 13:21:32;;;;;;;;;;;24.50;36.10;;;;;;5062793;28;19932;-68
2023/01/17 13:24:11;;;;;;;;;;;24.50;36.10;;;;;;5048950;28;20043;-67
2023/01/17 13:26:58;;;;;;;;;;;24.50;36.10;;;;;;5062841;28;19928;-67
2023/01/17 13:29:34;;;;;;;;;;;24.50;36.10;;;;;;5057722;28;19960;-67
2023/01/17 13:32:21;;;;;;;;;;;24.40;36.10;;;;;;5044923;28;19929;-69
2023/01/17 13:34:55;;;;;;;;;;;24.40;36.20;;;;;;5066910;28;19929;-67
2023/01/17 13:37:34;;;;;;;;;;;24.40;36.20;;;;;;5065737;28;20402;-67
2023/01/17 13:40:16;;;;;;;;;;;24.40;36.20;;;;;;5065261;28;20023;-67
2023/01/17 13:42:57;;;;;;;;;;;24.30;36.30;;;;;;5064681;28;19928;-68
2023/01/17 13:45:31;;;;;;;;;;;24.30;36.30;;;;;;5046836;28;19940;-66
2023/01/17 13:48:18;;;;;;;;;;;24.30;36.40;;;;;;5066165;28;19934;-66
2023/01/17 13:50:47;;;;;;;;;;;24.30;36.50;;;;;;5048546;28;20653;-67
2023/01/17 13:53:34;;;;;;;;;;;24.20;36.40;;;;;;5064608;28;19920;-66
2023/01/17 13:56:21;;;;;;;;;;;24.20;36.70;;;;;;5065900;28;20031;-63
2023/01/17 13:58:57;;;;;;;;;;;24.20;36.90;;;;;;5065697;28;19927;-64
2023/01/17 14:01:38;;;;;;;;;;;24.20;37.00;;;;;;5069687;28;19935;-63
2023/01/17 14:04:06;;;;;;;;;;;24.20;37.20;;;;;;5067575;28;20035;-62
2023/01/17 14:06:45;;;;;;;;;;;24.20;37.20;;;;;;5051087;28;20027;-64
2023/01/17 14:09:24;;;;;;;;;;;24.20;37.30;;;;;;5068992;28;20015;-64
2023/01/17 14:11:56;;;;;;;;;;;24.20;37.40;;;;;;5068637;28;20808;-65
2023/01/17 14:14:43;;;;;;;;;;;24.20;37.50;;;;;;5065658;28;19977;-63
2023/01/17 14:17:30;;;;;;;;;;;24.20;37.70;;;;;;5063769;28;20012;-60
2023/01/17 14:20:01;;;;;;;;;;;24.10;37.70;;;;;;5051996;28;19932;-60
2023/01/17 14:22:30;;;;;;;;;;;24.10;37.80;;;;;;5048187;28;19964;-60
2023/01/17 14:24:59;;;;;;;;;;;24.10;37.80;;;;;;5065026;28;20011;-60
2023/01/17 14:27:27;;;;;;;;;;;24.20;37.90;;;;;;5062753;28;19938;-62
2023/01/17 14:29:58;;;;;;;;;;;24.20;38.00;;;;;;5064556;28;20388;-61
2023/01/17 14:32:28;;;;;;;;;;;24.20;38.00;;;;;;5064549;28;19938;-64
2023/01/17 14:34:56;;;;;;;;;;;24.20;38.10;;;;;;5069551;28;21238;-64
2023/01/17 14:37:29;;;;;;;;;;;24.10;38.00;;;;;;5063995;28;19935;-65
2023/01/17 14:39:56;;;;;;;;;;;24.10;38.00;;;;;;5068153;28;20015;-62
2023/01/17 14:42:25;;;;;;;;;;;24.10;37.80;;;;;;5063022;28;20564;-62
2023/01/17 14:44:58;;;;;;;;;;;24.20;37.70;;;;;;5064451;28;20011;-63
2023/01/17 14:47:29;;;;;;;;;;;24.10;37.60;;;;;;5065514;28;19963;-64
2023/01/17 14:50:08;;;;;;;;;;;24.10;37.90;;;;;;5068194;28;19924;-62
2023/01/17 14:52:35;;;;;;;;;;;24.10;37.80;;;;;;5050349;28;20380;-61
2023/01/17 14:55:13;;;;;;;;;;;24.10;38.00;;;;;;5068883;28;19956;-62
2023/01/17 14:57:41;;;;;;;;;;;24.10;38.10;;;;;;5063281;28;19959;-61
2023/01/17 15:00:09;;;;;;;;;;;24.10;38.10;;;;;;5070001;28;19958;-61
2023/01/17 15:02:41;;;;;;;;;;;24.10;38.10;;;;;;5069259;28;20015;-65
2023/01/17 15:05:13;;;;;;;;;;;24.10;38.40;;;;;;5068483;28;19972;-63
2023/01/17 15:07:40;;;;;;;;;;;24.10;38.40;;;;;;5068892;28;19928;-59
2023/01/17 15:10:13;;;;;;;;;;;24.20;38.30;;;;;;5067076;28;19968;-62
2023/01/17 15:12:45;;;;;;;;;;;24.20;38.30;;;;;;5067714;28;20015;-64
2023/01/17 15:15:27;;;;;;;;;;;24.20;38.20;;;;;;5069168;28;20337;-62
2023/01/17 15:18:13;;;;;;;;;;;24.20;38.30;;;;;;5068339;28;19930;-64
2023/01/17 15:20:42;;;;;;;;;;;24.20;38.30;;;;;;5068546;28;19924;-65
2023/01/17 15:23:18;;;;;;;;;;;24.20;38.40;;;;;;5070290;28;19959;-65
2023/01/17 15:25:49;;;;;;;;;;;24.10;38.40;;;;;;5069011;28;19924;-61
2023/01/17 15:28:16;;;;;;;;;;;24.10;38.40;;;;;;5064630;28;19928;-64
2023/01/17 15:31:03;;;;;;;;;;;24.10;38.40;;;;;;5068952;28;20023;-64
2023/01/17 15:33:31;;;;;;;;;;;24.10;38.50;;;;;;5068363;28;19928;-64
2023/01/17 15:36:03;;;;;;;;;;;24.10;38.50;;;;;;5052436;28;19924;-64
2023/01/17 15:38:30;;;;;;;;;;;24.10;38.70;;;;;;5070122;28;19921;-64
2023/01/17 15:41:13;;;;;;;;;;;24.00;38.70;;;;;;5074466;28;19920;-63
2023/01/17 15:43:41;;;;;;;;;;;24.00;38.60;;;;;;5073613;28;20012;-63
2023/01/17 15:46:19;;;;;;;;;;;23.90;38.70;;;;;;5073428;28;19920;-65
2023/01/17 15:48:46;;;;;;;;;;;23.90;38.80;;;;;;5074355;28;19924;-64
2023/01/17 15:51:13;;;;;;;;;;;23.90;38.90;;;;;;5074853;28;20573;-66
2023/01/17 15:53:41;;;;;;;;;;;23.90;38.90;;;;;;5068276;28;19926;-66
2023/01/17 15:56:19;;;;;;;;;;;23.80;39.00;;;;;;5074414;28;19921;-66
2023/01/17 15:58:49;;;;;;;;;;;23.80;39.00;;;;;;5077491;28;19923;-65
2023/01/17 16:01:22;;;;;;;;;;;23.70;39.10;;;;;;5069488;28;20451;-63
2023/01/17 16:03:52;;;;;;;;;;;23.70;39.40;;;;;;5078995;28;19948;-64
2023/01/17 16:06:44;;;;;;;;;;;23.70;39.70;;;;;;5081395;28;19920;-63